Time;durP1;ratioP1;P1;durP2;ratioP2;P2;SDS_P1;SDS_P2;PMS_P1;PMS_P2;Temp;Humidity;BMP_temperature;BMP_pressure;BME280_temperature;BME280_humidity;BME280_pressure;Samples;Min_cycle;Max_cycle;Signal;HPM_P1;HPM_P2
2021/07/27 00:00:45;;;;;;;13.13;7.78;;;16.70;99.90;;;;;;5006710;28;20065;-63
2021/07/27 00:03:11;;;;;;;9.43;6.43;;;16.80;99.90;;;;;;5032241;28;20114;-64
2021/07/27 00:05:37;;;;;;;12.73;7.57;;;16.80;99.90;;;;;;5009621;28;20483;-63
2021/07/27 00:08:03;;;;;;;8.85;6.72;;;16.80;99.90;;;;;;4987394;28;20052;-63
2021/07/27 00:10:28;;;;;;;8.65;7.13;;;16.80;99.90;;;;;;5008625;28;20060;-64
2021/07/27 00:12:54;;;;;;;10.80;7.60;;;16.90;99.90;;;;;;5008852;28;20124;-63
2021/07/27 00:15:20;;;;;;;14.60;6.88;;;16.90;99.90;;;;;;4998940;28;20396;-63
2021/07/27 00:17:45;;;;;;;7.63;6.60;;;16.90;99.90;;;;;;5005385;28;20030;-63
2021/07/27 00:20:11;;;;;;;11.43;7.22;;;17.00;99.90;;;;;;5008460;28;20041;-64
2021/07/27 00:22:40;;;;;;;10.93;6.25;;;17.00;99.90;;;;;;5010273;28;20034;-64
2021/07/27 00:25:08;;;;;;;6.57;5.90;;;17.00;99.90;;;;;;5008904;28;20026;-63
2021/07/27 00:27:35;;;;;;;7.35;5.40;;;17.10;99.90;;;;;;5010278;28;20083;-63
2021/07/27 00:30:03;;;;;;;8.43;5.60;;;17.10;99.90;;;;;;5000813;28;20395;-62
2021/07/27 00:32:29;;;;;;;10.73;5.25;;;17.10;99.90;;;;;;5007462;28;20030;-64
2021/07/27 00:34:55;;;;;;;7.78;5.47;;;17.10;99.90;;;;;;5009397;28;20034;-64
2021/07/27 00:37:27;;;;;;;7.60;5.13;;;17.10;99.90;;;;;;5009107;28;20030;-62
2021/07/27 00:39:53;;;;;;;11.38;5.63;;;17.10;99.90;;;;;;5008437;28;20511;-64
2021/07/27 00:42:19;;;;;;;9.15;5.22;;;17.10;99.90;;;;;;5009866;28;20069;-63
2021/07/27 00:44:44;;;;;;;11.00;5.18;;;17.10;99.90;;;;;;4966642;28;20101;-63
2021/07/27 00:47:10;;;;;;;8.18;5.15;;;17.00;99.90;;;;;;4990180;28;20077;-64
2021/07/27 00:49:37;;;;;;;9.40;5.85;;;17.00;99.90;;;;;;5013143;28;20033;-64
2021/07/27 00:52:03;;;;;;;10.70;5.72;;;17.00;99.90;;;;;;5007711;28;20523;-63
2021/07/27 00:54:29;;;;;;;17.85;5.45;;;17.00;99.90;;;;;;5004981;28;20026;-62
2021/07/27 00:56:55;;;;;;;6.90;5.32;;;17.00;99.90;;;;;;5006636;28;20033;-64
2021/07/27 00:59:21;;;;;;;8.15;5.53;;;17.00;99.90;;;;;;5001115;28;20395;-63
2021/07/27 01:01:46;;;;;;;11.10;5.80;;;17.00;99.90;;;;;;5004143;28;20535;-63
2021/07/27 01:04:14;;;;;;;7.55;5.68;;;17.00;99.90;;;;;;5004476;28;20072;-61
2021/07/27 01:06:40;;;;;;;7.88;5.63;;;17.00;99.90;;;;;;5003864;28;20041;-63
2021/07/27 01:09:06;;;;;;;6.85;5.20;;;17.00;99.90;;;;;;5003480;28;20030;-63
2021/07/27 01:11:31;;;;;;;9.15;5.30;;;17.00;99.90;;;;;;5007578;28;20030;-64
2021/07/27 01:13:57;;;;;;;9.55;4.90;;;17.00;99.90;;;;;;5001979;28;20037;-66
2021/07/27 01:16:28;;;;;;;13.98;5.47;;;17.00;99.90;;;;;;5006651;28;20099;-62
2021/07/27 01:19:03;;;;;;;7.78;5.93;;;16.90;99.90;;;;;;4999893;28;20085;-64
2021/07/27 01:40:49;;;;;;;9.70;5.97;;;16.80;99.90;;;;;;5010067;28;19935;-64
2021/07/27 01:43:19;;;;;;;9.45;5.35;;;16.80;99.90;;;;;;5010371;28;20029;-61
2021/07/27 01:45:44;;;;;;;9.55;5.22;;;16.80;99.90;;;;;;5010791;28;20025;-64
2021/07/27 01:48:10;;;;;;;7.95;5.07;;;16.80;99.90;;;;;;5005983;28;20101;-63
2021/07/27 01:50:36;;;;;;;7.75;5.07;;;16.80;99.90;;;;;;5008160;28;20064;-64
2021/07/27 01:53:05;;;;;;;12.93;6.32;;;16.80;99.90;;;;;;5004850;28;20121;-63
2021/07/27 01:55:34;;;;;;;5.95;5.30;;;16.80;99.90;;;;;;5008709;28;20037;-64
2021/07/27 01:58:01;;;;;;;13.48;5.45;;;16.70;99.90;;;;;;5006429;28;20110;-64
2021/07/27 02:00:27;;;;;;;11.80;5.22;;;16.70;99.90;;;;;;5007227;28;20033;-63
2021/07/27 02:02:52;;;;;;;5.85;4.97;;;16.70;99.90;;;;;;5006439;28;20100;-64
2021/07/27 02:05:18;;;;;;;11.13;5.38;;;16.70;99.90;;;;;;5010868;28;20033;-63
2021/07/27 02:07:48;;;;;;;10.88;5.50;;;16.70;99.90;;;;;;5010187;28;20034;-65
2021/07/27 02:10:15;;;;;;;7.75;5.05;;;16.80;99.90;;;;;;5011921;28;20085;-62
2021/07/27 02:12:50;;;;;;;6.65;5.05;;;16.80;99.90;;;;;;5010000;28;20046;-64
2021/07/27 02:15:17;;;;;;;8.45;5.50;;;16.80;99.90;;;;;;5009017;28;20498;-63
2021/07/27 02:17:43;;;;;;;7.53;5.90;;;16.80;99.90;;;;;;5011031;28;20395;-64
2021/07/27 02:20:09;;;;;;;6.82;5.63;;;16.80;99.90;;;;;;5009994;28;20514;-64
2021/07/27 02:22:36;;;;;;;9.25;5.20;;;16.80;99.90;;;;;;5008145;28;20109;-64
2021/07/27 02:25:02;;;;;;;7.68;5.43;;;16.80;99.90;;;;;;5006964;28;20040;-63
2021/07/27 02:27:28;;;;;;;6.38;5.30;;;16.80;99.90;;;;;;5009338;28;20501;-62
2021/07/27 02:29:54;;;;;;;11.80;5.90;;;16.80;99.90;;;;;;5006903;28;20168;-64
2021/07/27 02:32:20;;;;;;;12.77;5.57;;;16.80;99.90;;;;;;5008955;28;20120;-64
2021/07/27 02:34:46;;;;;;;7.25;5.57;;;16.70;99.90;;;;;;5010728;28;20206;-63
2021/07/27 02:37:13;;;;;;;13.05;5.18;;;16.70;99.90;;;;;;5011849;28;20109;-64
2021/07/27 02:39:39;;;;;;;12.23;5.47;;;16.60;99.90;;;;;;5004601;28;20036;-64
2021/07/27 02:42:04;;;;;;;12.27;7.38;;;16.60;99.90;;;;;;5004228;28;20026;-64
2021/07/27 02:44:30;;;;;;;10.18;6.00;;;16.60;99.90;;;;;;5009259;28;20030;-64
2021/07/27 02:46:56;;;;;;;9.38;5.57;;;16.60;99.90;;;;;;5008347;28;20088;-63
2021/07/27 02:49:21;;;;;;;16.00;8.30;;;16.60;99.90;;;;;;5006628;28;20109;-63
2021/07/27 02:51:48;;;;;;;13.50;5.35;;;16.60;99.90;;;;;;5009144;28;20096;-64
2021/07/27 02:54:18;;;;;;;8.93;6.50;;;16.60;99.90;;;;;;4997355;28;20070;-61
2021/07/27 02:56:43;;;;;;;7.05;5.03;;;16.70;99.90;;;;;;5009730;28;20034;-64
2021/07/27 02:59:09;;;;;;;11.50;6.18;;;16.70;99.90;;;;;;5008769;28;20108;-64
2021/07/27 03:01:35;;;;;;;13.77;5.72;;;16.70;99.90;;;;;;5005104;28;20080;-63
2021/07/27 03:04:00;;;;;;;8.20;5.60;;;16.70;99.90;;;;;;5008328;28;20491;-64
2021/07/27 03:06:28;;;;;;;5.95;5.28;;;16.70;99.90;;;;;;5001846;28;20019;-63
2021/07/27 03:11:20;;;;;;;11.70;5.82;;;16.80;99.90;;;;;;5009304;28;20049;-64
2021/07/27 03:13:46;;;;;;;10.32;6.22;;;16.80;99.90;;;;;;5008622;28;20022;-64
2021/07/27 03:16:20;;;;;;;13.05;5.70;;;16.70;99.90;;;;;;5008671;28;20040;-64
2021/07/27 03:18:49;;;;;;;9.85;5.47;;;16.70;99.90;;;;;;5006112;28;20040;-64
2021/07/27 03:21:17;;;;;;;10.60;6.15;;;16.80;99.90;;;;;;5006825;28;20529;-64
2021/07/27 03:23:46;;;;;;;11.90;7.15;;;16.80;99.90;;;;;;5006976;28;20034;-64
2021/07/27 03:26:12;;;;;;;7.97;5.82;;;16.80;99.90;;;;;;5010103;28;20032;-64
2021/07/27 03:28:39;;;;;;;8.32;6.45;;;16.80;99.90;;;;;;5007956;28;20026;-64
2021/07/27 03:31:04;;;;;;;7.95;6.32;;;16.80;99.90;;;;;;5005344;28;20052;-64
2021/07/27 03:33:30;;;;;;;9.02;6.10;;;16.70;99.90;;;;;;5009922;28;20398;-64
2021/07/27 03:35:55;;;;;;;8.20;6.18;;;16.80;99.90;;;;;;5009596;28;20084;-64
2021/07/27 03:38:21;;;;;;;14.27;6.53;;;16.80;99.90;;;;;;5008062;28;20030;-63
2021/07/27 03:40:46;;;;;;;9.80;6.22;;;16.80;99.90;;;;;;5009718;28;20065;-64
2021/07/27 03:43:12;;;;;;;10.30;6.43;;;16.80;99.90;;;;;;5007864;28;20042;-64
2021/07/27 03:45:38;;;;;;;10.57;5.47;;;16.80;99.90;;;;;;5008626;28;20041;-63
2021/07/27 03:48:03;;;;;;;13.38;6.00;;;16.70;99.90;;;;;;5000914;28;20495;-63
2021/07/27 03:50:29;;;;;;;9.05;6.22;;;16.70;99.90;;;;;;5006164;28;20021;-64
2021/07/27 03:52:54;;;;;;;8.07;6.82;;;16.60;99.90;;;;;;5009383;28;20025;-64
2021/07/27 03:55:20;;;;;;;6.50;5.75;;;16.60;99.90;;;;;;5006970;28;20038;-64
2021/07/27 03:57:45;;;;;;;9.68;5.95;;;16.60;99.90;;;;;;5002539;28;20125;-64
2021/07/27 04:00:11;;;;;;;9.70;6.10;;;16.60;99.90;;;;;;5005472;28;20483;-65
2021/07/27 04:02:37;;;;;;;10.65;5.50;;;16.50;99.90;;;;;;5008303;28;20018;-63
2021/07/27 04:05:06;;;;;;;9.00;6.32;;;16.50;99.90;;;;;;5010638;28;20048;-64
2021/07/27 04:07:32;;;;;;;13.55;6.07;;;16.50;99.90;;;;;;4990113;28;20080;-64
2021/07/27 04:09:59;;;;;;;11.20;6.35;;;16.40;99.90;;;;;;5009627;28;20096;-64
2021/07/27 04:12:24;;;;;;;10.07;6.68;;;16.40;99.90;;;;;;5009494;28;20038;-64
2021/07/27 04:14:50;;;;;;;6.60;5.60;;;16.40;99.90;;;;;;5006877;28;20079;-64
2021/07/27 04:17:20;;;;;;;10.60;6.07;;;16.40;99.90;;;;;;5008832;28;20114;-64
2021/07/27 04:19:49;;;;;;;7.75;5.63;;;16.40;99.90;;;;;;5005060;28;20058;-64
2021/07/27 04:22:15;;;;;;;8.68;5.65;;;16.40;99.90;;;;;;5009572;28;20107;-60
2021/07/27 04:24:40;;;;;;;6.68;5.38;;;16.40;99.90;;;;;;5000158;28;20810;-64
2021/07/27 04:27:06;;;;;;;5.97;5.40;;;16.50;99.90;;;;;;5009934;28;20396;-64
2021/07/27 04:29:34;;;;;;;7.70;5.63;;;16.60;99.90;;;;;;5006638;28;20077;-64
2021/07/27 04:31:59;;;;;;;8.00;5.15;;;16.70;99.90;;;;;;5008703;28;20507;-64
2021/07/27 04:34:25;;;;;;;10.10;5.70;;;16.80;99.90;;;;;;5008668;28;20033;-64
2021/07/27 04:36:51;;;;;;;6.43;5.32;;;17.00;99.90;;;;;;5008860;28;20040;-64
2021/07/27 04:39:17;;;;;;;8.18;4.75;;;17.10;99.90;;;;;;5007102;28;20109;-64
2021/07/27 04:41:42;;;;;;;6.18;4.63;;;17.30;99.90;;;;;;5007545;28;20480;-64
2021/07/27 04:44:08;;;;;;;6.97;4.57;;;17.50;99.90;;;;;;5005601;28;20026;-64
2021/07/27 04:46:34;;;;;;;8.70;4.78;;;17.70;99.90;;;;;;5010281;28;20022;-64
2021/07/27 04:48:59;;;;;;;5.82;4.32;;;17.90;99.90;;;;;;5006463;28;20449;-64
2021/07/27 04:51:25;;;;;;;6.60;4.38;;;18.10;99.90;;;;;;5008411;28;20034;-64
2021/07/27 04:53:58;;;;;;;7.97;4.18;;;18.40;99.90;;;;;;5005344;28;20034;-64
2021/07/27 04:56:23;;;;;;;7.82;3.67;;;18.80;99.90;;;;;;5007660;28;20620;-64
2021/07/27 04:58:49;;;;;;;5.72;3.55;;;19.30;99.90;;;;;;5006199;28;20034;-64
2021/07/27 05:01:14;;;;;;;6.03;3.30;;;19.90;99.90;;;;;;5001507;28;20060;-64
2021/07/27 05:03:40;;;;;;;4.13;2.95;;;20.60;99.90;;;;;;5008721;28;20061;-63
2021/07/27 05:06:08;;;;;;;4.30;2.85;;;21.20;99.90;;;;;;5008155;28;20062;-64
2021/07/27 05:08:34;;;;;;;6.35;3.58;;;21.40;99.90;;;;;;4989476;28;20404;-62
2021/07/27 05:11:01;;;;;;;4.53;3.38;;;21.30;99.90;;;;;;5003109;28;20029;-64
2021/07/27 05:13:27;;;;;;;8.80;3.70;;;20.80;99.90;;;;;;5007572;28;20037;-64
2021/07/27 05:15:53;;;;;;;6.03;3.47;;;20.40;99.90;;;;;;5008756;28;20034;-64
2021/07/27 05:18:19;;;;;;;5.22;3.65;;;20.10;99.90;;;;;;5004887;28;20100;-63
2021/07/27 05:20:45;;;;;;;6.15;3.90;;;19.90;99.90;;;;;;5004887;28;20034;-65
2021/07/27 05:23:11;;;;;;;4.95;4.30;;;19.70;99.90;;;;;;5004009;28;20057;-64
2021/07/27 05:25:36;;;;;;;10.90;4.68;;;19.50;99.90;;;;;;5004937;28;20131;-60
2021/07/27 05:28:02;;;;;;;6.75;3.95;;;19.60;99.90;;;;;;5007660;28;20070;-64
2021/07/27 05:30:27;;;;;;;5.22;3.83;;;20.20;99.90;;;;;;5002357;28;20569;-65
2021/07/27 05:32:55;;;;;;;5.63;3.70;;;20.70;99.90;;;;;;5005959;28;20030;-63
2021/07/27 05:35:21;;;;;;;7.13;3.45;;;20.90;99.90;;;;;;5008123;28;20022;-65
2021/07/27 05:37:47;;;;;;;4.05;3.65;;;21.00;99.90;;;;;;5007422;28;20026;-62
2021/07/27 05:40:13;;;;;;;6.78;4.03;;;21.20;99.90;;;;;;5006932;28;20042;-64
2021/07/27 05:42:39;;;;;;;5.78;3.60;;;21.10;99.90;;;;;;5008440;28;20369;-63
2021/07/27 05:45:05;;;;;;;7.15;3.78;;;20.90;99.90;;;;;;5007144;28;20026;-63
2021/07/27 05:47:30;;;;;;;8.10;5.03;;;20.60;99.90;;;;;;5007640;28;20413;-64
2021/07/27 05:49:56;;;;;;;5.70;4.35;;;20.40;99.90;;;;;;5005813;28;20029;-63
2021/07/27 05:52:21;;;;;;;7.05;4.32;;;20.40;99.90;;;;;;5007787;28;20026;-64
2021/07/27 05:54:47;;;;;;;6.97;3.80;;;20.70;99.90;;;;;;5003100;28;20066;-63
2021/07/27 05:57:17;;;;;;;7.38;4.00;;;21.00;99.90;;;;;;5006642;28;20108;-65
2021/07/27 05:59:43;;;;;;;6.97;4.07;;;21.40;99.90;;;;;;5004926;28;20220;-65
2021/07/27 06:02:11;;;;;;;5.13;3.42;;;22.00;99.90;;;;;;5002614;28;20140;-65
2021/07/27 06:04:36;;;;;;;8.02;3.90;;;23.10;99.90;;;;;;5005157;28;20311;-65
2021/07/27 06:07:02;;;;;;;9.10;4.90;;;23.60;99.90;;;;;;5008779;28;20490;-65
2021/07/27 06:09:27;;;;;;;6.47;4.10;;;24.40;99.90;;;;;;4992119;28;20144;-66
2021/07/27 06:11:53;;;;;;;4.97;3.80;;;24.70;99.90;;;;;;5007611;28;20802;-65
2021/07/27 06:14:19;;;;;;;7.80;3.35;;;25.30;99.90;;;;;;5006183;28;20037;-62
2021/07/27 06:16:44;;;;;;;6.13;3.40;;;26.30;99.90;;;;;;5004097;28;20482;-65
2021/07/27 06:19:10;;;;;;;4.03;3.63;;;27.20;98.30;;;;;;5004521;28;20026;-64
2021/07/27 06:21:38;;;;;;;8.32;3.72;;;27.70;97.60;;;;;;5004285;28;20018;-65
2021/07/27 06:24:08;;;;;;;5.43;3.70;;;27.00;96.70;;;;;;5002196;28;20014;-63
2021/07/27 06:26:34;;;;;;;9.73;3.85;;;25.80;97.40;;;;;;5010880;28;20112;-65
2021/07/27 06:29:01;;;;;;;5.97;4.00;;;25.00;98.50;;;;;;5009112;28;20114;-64
2021/07/27 06:31:27;;;;;;;8.40;3.40;;;25.00;99.90;;;;;;5008662;28;20907;-63
2021/07/27 06:33:52;;;;;;;8.60;3.97;;;25.00;99.70;;;;;;5010900;28;20182;-62
2021/07/27 06:36:18;;;;;;;5.13;4.28;;;24.90;99.00;;;;;;5007609;28;20427;-62
2021/07/27 06:38:44;;;;;;;7.80;4.25;;;24.50;99.30;;;;;;5011001;28;20034;-65
2021/07/27 06:41:11;;;;;;;8.05;4.63;;;24.20;99.90;;;;;;5011137;28;20496;-64
2021/07/27 06:43:40;;;;;;;8.70;4.07;;;24.30;99.90;;;;;;5010299;28;20088;-64
2021/07/27 06:46:06;;;;;;;11.32;4.97;;;24.10;99.90;;;;;;5006007;28;20057;-64
2021/07/27 06:48:32;;;;;;;4.25;3.75;;;23.90;99.90;;;;;;5009720;28;20486;-64
2021/07/27 06:50:57;;;;;;;9.77;4.70;;;23.70;99.90;;;;;;5004258;28;20037;-64
2021/07/27 06:53:26;;;;;;;8.95;4.20;;;23.70;99.90;;;;;;5007734;28;20054;-64
2021/07/27 06:55:51;;;;;;;10.45;4.30;;;23.40;99.90;;;;;;5007405;28;20113;-64
2021/07/27 06:58:17;;;;;;;8.18;4.93;;;23.30;99.90;;;;;;5008426;28;20105;-61
2021/07/27 07:00:43;;;;;;;5.38;4.00;;;22.90;99.90;;;;;;5003319;28;20080;-64
2021/07/27 07:03:09;;;;;;;8.45;5.18;;;22.60;99.90;;;;;;5007080;28;20033;-65
2021/07/27 07:05:37;;;;;;;6.82;4.47;;;22.50;99.90;;;;;;5005836;28;20034;-63
2021/07/27 07:08:03;;;;;;;6.75;4.30;;;22.50;99.90;;;;;;4989567;28;20050;-65
2021/07/27 07:10:28;;;;;;;7.63;4.70;;;22.80;99.90;;;;;;5011658;28;20125;-65
2021/07/27 07:12:54;;;;;;;6.60;4.93;;;23.00;99.90;;;;;;5007672;28;20467;-63
2021/07/27 07:15:20;;;;;;;8.43;4.00;;;23.30;99.90;;;;;;5009232;28;20048;-65
2021/07/27 07:17:46;;;;;;;6.97;4.38;;;23.60;99.90;;;;;;5010911;28;20053;-64
2021/07/27 07:20:12;;;;;;;5.85;4.10;;;23.90;99.90;;;;;;5006728;28;20028;-64
2021/07/27 07:22:38;;;;;;;5.22;4.32;;;23.70;99.90;;;;;;5007384;28;20030;-63
2021/07/27 07:25:04;;;;;;;5.93;4.07;;;23.60;99.90;;;;;;5004820;28;20037;-64
2021/07/27 07:27:29;;;;;;;9.45;4.90;;;23.20;99.90;;;;;;5010559;28;20038;-64
2021/07/27 07:29:56;;;;;;;10.20;4.85;;;22.90;99.90;;;;;;5007555;28;20026;-64
2021/07/27 07:32:22;;;;;;;7.25;4.40;;;22.70;99.90;;;;;;5007908;28;20030;-64
2021/07/27 07:34:48;;;;;;;6.78;5.13;;;22.90;99.90;;;;;;5010673;28;20092;-64
2021/07/27 07:37:13;;;;;;;7.97;4.72;;;22.90;99.90;;;;;;5011107;28;20041;-63
2021/07/27 07:39:39;;;;;;;6.97;5.10;;;22.80;99.90;;;;;;5008971;28;20026;-64
2021/07/27 07:42:05;;;;;;;6.05;3.95;;;23.00;99.90;;;;;;5009731;28;20057;-64
2021/07/27 07:44:32;;;;;;;4.30;3.90;;;23.90;99.90;;;;;;5008219;28;20038;-62
2021/07/27 07:46:58;;;;;;;7.57;4.40;;;25.10;99.90;;;;;;5010038;28;20057;-64
2021/07/27 07:49:24;;;;;;;5.82;3.80;;;25.30;99.90;;;;;;5006557;28;20085;-59
2021/07/27 07:51:50;;;;;;;7.32;3.80;;;25.70;99.70;;;;;;5010455;28;20034;-64
2021/07/27 07:54:17;;;;;;;5.07;3.83;;;25.70;98.70;;;;;;5004262;28;20057;-65
2021/07/27 07:56:44;;;;;;;5.78;3.95;;;26.00;98.70;;;;;;5006297;28;20479;-64
2021/07/27 07:59:10;;;;;;;7.72;4.90;;;26.10;98.80;;;;;;5006880;28;20049;-65
2021/07/27 08:01:36;;;;;;;8.00;4.32;;;26.30;97.00;;;;;;5007663;28;20480;-62
2021/07/27 08:04:01;;;;;;;6.43;4.80;;;26.70;96.60;;;;;;5007743;28;20030;-63
2021/07/27 08:06:29;;;;;;;6.35;3.83;;;26.70;95.80;;;;;;5003185;28;20061;-65
2021/07/27 08:08:54;;;;;;;5.57;4.18;;;27.30;95.70;;;;;;4986980;28;20061;-65
2021/07/27 08:11:20;;;;;;;5.63;4.25;;;27.30;95.30;;;;;;5009517;28;20639;-65
2021/07/27 08:13:46;;;;;;;7.30;4.90;;;26.70;96.40;;;;;;5006996;28;20114;-65
2021/07/27 08:16:12;;;;;;;9.85;4.70;;;26.50;96.10;;;;;;5007093;28;20120;-64
2021/07/27 08:18:38;;;;;;;8.27;4.45;;;26.00;97.30;;;;;;5007427;28;20091;-64
2021/07/27 08:21:04;;;;;;;7.50;4.85;;;26.30;97.60;;;;;;5001803;28;20034;-64
2021/07/27 08:23:30;;;;;;;6.72;4.22;;;27.20;96.00;;;;;;5009926;28;20033;-65
2021/07/27 08:25:56;;;;;;;6.00;4.40;;;27.80;95.70;;;;;;5007711;28;20042;-64
2021/07/27 08:28:22;;;;;;;7.70;5.03;;;28.50;94.50;;;;;;5007045;28;20034;-64
2021/07/27 08:30:47;;;;;;;7.95;4.85;;;28.50;93.90;;;;;;5005403;28;20527;-65
2021/07/27 08:33:13;;;;;;;5.40;4.25;;;28.50;92.60;;;;;;5009668;28;20097;-65
2021/07/27 08:35:39;;;;;;;6.10;4.53;;;28.40;93.20;;;;;;5007992;28;20034;-65
2021/07/27 08:38:04;;;;;;;7.60;4.45;;;28.00;93.00;;;;;;5010089;28;20030;-65
2021/07/27 08:40:35;;;;;;;13.10;5.32;;;27.20;94.50;;;;;;5005631;28;20022;-64
2021/07/27 08:43:02;;;;;;;8.07;5.00;;;26.50;94.80;;;;;;5009799;28;20480;-64
2021/07/27 08:45:28;;;;;;;8.02;5.50;;;26.30;95.10;;;;;;5007662;28;20026;-64
2021/07/27 08:47:55;;;;;;;8.93;5.30;;;26.10;95.20;;;;;;5008735;28;20180;-64
2021/07/27 08:50:21;;;;;;;18.67;5.30;;;26.10;95.90;;;;;;5005951;28;20037;-61
2021/07/27 08:52:46;;;;;;;8.50;5.05;;;27.10;95.60;;;;;;5009610;28;20108;-64
2021/07/27 08:55:13;;;;;;;7.20;4.75;;;27.20;94.50;;;;;;5006386;28;20120;-64
2021/07/27 08:57:52;;;;;;;10.73;5.75;;;26.90;95.40;;;;;;5010036;28;20624;-65
2021/07/27 09:00:21;;;;;;;7.05;5.22;;;26.30;96.20;;;;;;5007029;28;20085;-62
2021/07/27 09:02:46;;;;;;;6.35;5.47;;;26.10;96.20;;;;;;5007732;28;20022;-63
2021/07/27 09:05:13;;;;;;;6.70;4.90;;;25.90;96.70;;;;;;5007371;28;20026;-65
2021/07/27 09:07:39;;;;;;;12.52;5.10;;;26.00;96.50;;;;;;4999274;28;20061;-64
2021/07/27 09:10:14;;;;;;;7.47;5.35;;;25.70;96.80;;;;;;5006378;28;20507;-64
2021/07/27 09:12:52;;;;;;;11.32;5.75;;;25.60;97.30;;;;;;5004134;28;20029;-65
2021/07/27 09:15:21;;;;;;;10.95;5.55;;;25.70;97.30;;;;;;5004726;28;20037;-64
2021/07/27 09:18:00;;;;;;;10.00;5.25;;;26.20;97.00;;;;;;5008944;28;20025;-65
2021/07/27 09:20:29;;;;;;;5.93;5.00;;;26.40;96.50;;;;;;5006180;28;20053;-65
2021/07/27 09:22:55;;;;;;;5.75;5.13;;;27.50;95.40;;;;;;5006846;28;20443;-63
2021/07/27 09:25:28;;;;;;;10.43;5.43;;;28.00;94.60;;;;;;5007130;28;20089;-65
2021/07/27 09:28:05;;;;;;;6.47;4.68;;;28.30;93.30;;;;;;5006412;28;20045;-65
2021/07/27 09:30:32;;;;;;;6.00;4.45;;;28.40;93.80;;;;;;5005915;28;20048;-65
2021/07/27 09:32:58;;;;;;;6.22;4.97;;;28.20;94.00;;;;;;5004969;28;20175;-63
2021/07/27 09:35:28;;;;;;;6.90;5.00;;;28.20;93.30;;;;;;5006822;28;20371;-65
2021/07/27 09:38:18;;;;;;;7.40;5.30;;;28.30;92.20;;;;;;5001136;28;20107;-65
2021/07/27 09:40:51;;;;;;;7.70;5.40;;;28.30;92.50;;;;;;5005895;28;20080;-64
2021/07/27 09:43:22;;;;;;;7.70;5.82;;;29.00;92.60;;;;;;5007028;28;20554;-65
2021/07/27 09:45:49;;;;;;;7.45;4.30;;;28.70;91.90;;;;;;5002306;28;20718;-64
2021/07/27 09:48:17;;;;;;;14.25;5.18;;;28.90;92.70;;;;;;4997028;28;20125;-64
2021/07/27 09:50:47;;;;;;;5.90;5.30;;;29.00;92.40;;;;;;4997751;28;20042;-64
2021/07/27 09:53:14;;;;;;;6.85;5.80;;;28.80;92.30;;;;;;4994866;28;20040;-61
2021/07/27 09:55:39;;;;;;;12.45;5.18;;;28.70;92.00;;;;;;4997249;28;20034;-64
2021/07/27 09:58:05;;;;;;;5.57;4.63;;;28.90;91.90;;;;;;4995653;28;20038;-63
2021/07/27 10:00:32;;;;;;;8.20;5.03;;;29.10;92.60;;;;;;4999358;28;20036;-62
2021/07/27 10:02:59;;;;;;;10.95;5.10;;;28.70;90.70;;;;;;5000107;28;20026;-63
2021/07/27 10:05:26;;;;;;;6.97;5.22;;;28.70;92.00;;;;;;5003104;28;20114;-62
2021/07/27 10:07:54;;;;;;;6.13;5.45;;;28.10;93.00;;;;;;4983438;28;20041;-62
2021/07/27 10:10:32;;;;;;;10.65;5.20;;;28.10;94.30;;;;;;4999517;28;20488;-61
2021/07/27 10:13:07;;;;;;;7.80;6.20;;;27.60;93.20;;;;;;5008456;28;20025;-63
2021/07/27 10:15:45;;;;;;;12.23;5.38;;;27.40;93.30;;;;;;5010801;28;20507;-63
2021/07/27 10:18:12;;;;;;;6.55;5.40;;;27.60;94.70;;;;;;5006344;28;20038;-64
2021/07/27 10:20:38;;;;;;;8.80;5.45;;;27.70;93.40;;;;;;5011971;28;20632;-64
2021/07/27 10:23:17;;;;;;;10.02;5.88;;;28.60;92.60;;;;;;5010833;28;20655;-64
2021/07/27 10:25:56;;;;;;;13.57;5.35;;;29.00;90.90;;;;;;5008103;28;20026;-64
2021/07/27 10:28:24;;;;;;;7.43;5.20;;;29.00;92.90;;;;;;5009462;28;20056;-61
2021/07/27 10:31:05;;;;;;;8.02;5.47;;;29.00;91.60;;;;;;5006372;28;20101;-64
2021/07/27 10:33:31;;;;;;;8.60;6.00;;;28.70;91.80;;;;;;5011123;28;20018;-64
2021/07/27 10:35:57;;;;;;;8.55;5.53;;;28.20;91.60;;;;;;5011941;28;20036;-63
2021/07/27 10:38:33;;;;;;;13.27;7.15;;;27.90;92.20;;;;;;5006026;28;20034;-62
2021/07/27 10:40:58;;;;;;;7.72;5.75;;;27.80;92.40;;;;;;5008311;28;21716;-63
2021/07/27 10:43:25;;;;;;;13.18;5.47;;;27.70;93.30;;;;;;5011557;28;20022;-64
2021/07/27 10:46:01;;;;;;;9.63;5.72;;;27.50;93.00;;;;;;5009506;28;20403;-63
2021/07/27 10:48:33;;;;;;;8.27;5.45;;;27.40;92.90;;;;;;5010989;28;20114;-63
2021/07/27 10:51:00;;;;;;;8.70;6.05;;;27.30;95.30;;;;;;5010194;28;20026;-64
2021/07/27 10:53:32;;;;;;;9.63;6.35;;;27.30;94.80;;;;;;5008120;28;20132;-62
2021/07/27 10:56:06;;;;;;;8.13;5.38;;;27.10;99.20;;;;;;5010897;28;20030;-65
2021/07/27 10:58:34;;;;;;;9.32;6.30;;;27.10;97.10;;;;;;5013238;28;20037;-63
2021/07/27 11:01:10;;;;;;;8.25;6.55;;;26.70;97.00;;;;;;5008211;28;20022;-64
2021/07/27 11:03:36;;;;;;;10.77;6.68;;;26.40;97.40;;;;;;5011326;28;20105;-64
2021/07/27 11:06:03;;;;;;;13.23;6.10;;;25.80;97.40;;;;;;5006012;28;20040;-65
2021/07/27 11:08:29;;;;;;;16.08;6.82;;;25.40;99.50;;;;;;4984326;28;20049;-63
2021/07/27 11:11:10;;;;;;;14.82;8.10;;;25.10;99.90;;;;;;5008166;28;20030;-63
2021/07/27 11:13:37;;;;;;;12.40;7.10;;;24.80;99.90;;;;;;5004910;28;20026;-62
2021/07/27 11:16:03;;;;;;;10.18;7.80;;;24.70;99.90;;;;;;5012506;28;20154;-63
2021/07/27 11:18:29;;;;;;;13.13;7.65;;;24.80;99.90;;;;;;5009586;28;20021;-64
2021/07/27 11:20:56;;;;;;;9.95;7.15;;;25.00;99.90;;;;;;5001869;28;20022;-61
2021/07/27 11:23:25;;;;;;;10.65;7.38;;;25.30;99.90;;;;;;5004143;28;20036;-62
2021/07/27 11:25:57;;;;;;;16.00;6.50;;;25.70;99.90;;;;;;5001848;28;20084;-61
2021/07/27 11:28:34;;;;;;;13.23;6.30;;;26.20;96.60;;;;;;5001727;28;20080;-63
2021/07/27 11:31:00;;;;;;;9.38;6.00;;;26.90;96.10;;;;;;4998326;28;20026;-63
2021/07/27 11:33:26;;;;;;;9.82;7.03;;;27.10;95.30;;;;;;5005739;28;20077;-60
2021/07/27 11:35:53;;;;;;;7.60;5.78;;;27.40;94.40;;;;;;5006089;28;20034;-65
2021/07/27 11:38:24;;;;;;;12.18;5.97;;;27.70;93.70;;;;;;4996012;28;20033;-62
2021/07/27 11:41:01;;;;;;;10.60;5.75;;;27.70;93.00;;;;;;4995687;28;20038;-64
2021/07/27 11:43:32;;;;;;;11.25;5.72;;;27.70;92.80;;;;;;4997888;28;20052;-63
2021/07/27 11:46:06;;;;;;;10.13;6.43;;;27.70;93.40;;;;;;4994527;28;20101;-65
2021/07/27 11:48:33;;;;;;;7.20;6.30;;;27.30;95.80;;;;;;4998853;28;20129;-64
2021/07/27 11:50:59;;;;;;;8.50;6.53;;;27.00;94.90;;;;;;5010779;28;20054;-65
2021/07/27 11:53:25;;;;;;;9.23;5.85;;;26.70;95.50;;;;;;5009599;28;20065;-65
2021/07/27 11:55:50;;;;;;;9.45;5.68;;;26.70;94.40;;;;;;5009605;28;20036;-64
2021/07/27 11:58:29;;;;;;;8.15;5.32;;;26.90;93.50;;;;;;5004901;28;20035;-64
2021/07/27 12:00:57;;;;;;;10.80;5.97;;;27.10;94.00;;;;;;5003165;28;20026;-64
2021/07/27 12:03:22;;;;;;;12.25;5.63;;;27.10;92.40;;;;;;4998461;28;20022;-63
2021/07/27 12:05:48;;;;;;;7.88;5.55;;;27.00;94.30;;;;;;4999021;28;20037;-65
2021/07/27 12:08:14;;;;;;;7.55;5.65;;;27.00;95.70;;;;;;5004777;28;20395;-64
2021/07/27 12:10:39;;;;;;;7.20;5.43;;;26.70;93.60;;;;;;4999797;28;20044;-63
2021/07/27 12:13:05;;;;;;;8.43;5.63;;;26.70;94.90;;;;;;5006235;28;20030;-65
2021/07/27 12:15:30;;;;;;;29.73;11.63;;;26.90;94.00;;;;;;5004559;28;20045;-65
2021/07/27 12:17:56;;;;;;;10.75;6.00;;;27.30;93.50;;;;;;5005270;28;20030;-63
2021/07/27 12:20:23;;;;;;;12.55;5.97;;;27.00;93.30;;;;;;5008270;28;20042;-61
2021/07/27 12:22:48;;;;;;;8.27;5.80;;;26.80;94.40;;;;;;4999957;28;20117;-64
2021/07/27 12:25:14;;;;;;;7.90;5.63;;;26.70;94.30;;;;;;5000539;28;20041;-63
2021/07/27 12:27:40;;;;;;;8.32;4.95;;;26.60;93.40;;;;;;5009376;28;20113;-65
2021/07/27 12:30:06;;;;;;;7.55;4.82;;;26.40;94.70;;;;;;5001898;28;20065;-65
2021/07/27 12:32:32;;;;;;;7.90;5.28;;;26.30;94.80;;;;;;4998666;28;20044;-64
2021/07/27 12:34:58;;;;;;;7.53;5.05;;;26.50;95.10;;;;;;4997213;28;20044;-65
2021/07/27 12:37:23;;;;;;;7.50;4.28;;;26.50;93.50;;;;;;5000310;28;20399;-63
2021/07/27 12:39:49;;;;;;;11.60;4.82;;;26.90;93.00;;;;;;4997386;28;20034;-64
2021/07/27 12:42:15;;;;;;;5.97;4.65;;;27.00;92.10;;;;;;4998994;28;20837;-64
2021/07/27 12:44:41;;;;;;;9.25;5.25;;;27.00;92.20;;;;;;4998340;28;20029;-63
2021/07/27 12:47:07;;;;;;;7.15;5.00;;;27.00;93.30;;;;;;4995144;28;20045;-63
2021/07/27 12:49:33;;;;;;;6.43;4.80;;;27.00;93.70;;;;;;4996079;28;20442;-64
2021/07/27 12:51:59;;;;;;;6.78;4.93;;;27.00;93.60;;;;;;4997071;28;20037;-63
2021/07/27 12:54:24;;;;;;;7.22;4.88;;;26.70;92.20;;;;;;4999857;28;20030;-63
2021/07/27 12:56:50;;;;;;;7.88;5.30;;;26.50;93.10;;;;;;5002231;28;20058;-63
2021/07/27 12:59:16;;;;;;;9.95;5.03;;;26.30;94.10;;;;;;5009780;28;20033;-63
2021/07/27 13:01:41;;;;;;;7.07;4.93;;;26.10;96.50;;;;;;5005007;28;20022;-63
2021/07/27 13:04:07;;;;;;;9.13;5.15;;;25.80;95.30;;;;;;5004493;28;20014;-64